createdAt,value
2018-07-09T00:02:13.194Z,18.70
2018-07-09T00:04:44.101Z,18.70
2018-07-09T00:07:14.677Z,18.70
2018-07-09T00:12:15.629Z,18.80
2018-07-09T00:14:46.325Z,18.70
2018-07-09T00:17:17.638Z,18.80
2018-07-09T00:19:48.352Z,18.70
2018-07-09T00:22:18.940Z,18.70
2018-07-09T00:24:49.696Z,18.70
2018-07-09T00:27:20.384Z,18.70
2018-07-09T00:29:50.994Z,18.70
2018-07-09T00:32:21.698Z,18.70
2018-07-09T00:34:53.231Z,18.70
2018-07-09T00:37:23.963Z,18.60
2018-07-09T00:39:54.701Z,18.50
2018-07-09T00:42:25.308Z,18.40
2018-07-09T00:44:56.398Z,18.40
2018-07-09T00:49:57.665Z,18.30
2018-07-09T00:52:28.446Z,18.20
2018-07-09T00:54:59.154Z,18.20
2018-07-09T00:57:29.864Z,18.20
2018-07-09T01:00:00.367Z,18.20
2018-07-09T01:02:31.088Z,18.30
2018-07-09T01:05:01.857Z,18.30
2018-07-09T01:10:02.530Z,18.20
2018-07-09T01:12:33.049Z,18.20
2018-07-09T01:15:03.686Z,18.00
2018-07-09T01:17:34.295Z,18.10
2018-07-09T01:20:05.130Z,18.10
2018-07-09T01:22:35.708Z,18.10
2018-07-09T01:25:06.606Z,18.10
2018-07-09T01:27:37.210Z,18.00
2018-07-09T01:30:11.574Z,17.90
2018-07-09T01:32:42.411Z,17.80
2018-07-09T01:35:13.884Z,17.80
2018-07-09T01:37:44.371Z,17.70
2018-07-09T01:42:45.219Z,17.50
2018-07-09T01:45:15.745Z,17.40
2018-07-09T01:47:46.531Z,17.50
2018-07-09T01:50:17.232Z,17.60
2018-07-09T01:52:47.810Z,17.60
2018-07-09T01:55:18.403Z,17.60
2018-07-09T01:57:49.640Z,17.60
2018-07-09T02:00:20.361Z,17.60
2018-07-09T02:05:21.114Z,17.60
2018-07-09T02:07:54.700Z,17.60
2018-07-09T02:10:25.277Z,17.70
2018-07-09T02:12:55.883Z,17.80
2018-07-09T02:17:56.449Z,17.80
2018-07-09T02:20:27.668Z,17.80
2018-07-09T02:22:58.474Z,17.70
2018-07-09T02:25:29.043Z,17.70
2018-07-09T02:27:59.680Z,17.60
2018-07-09T02:30:30.147Z,17.50
2018-07-09T02:33:00.716Z,17.50
2018-07-09T02:35:31.293Z,17.40
2018-07-09T02:38:02.112Z,17.30
2018-07-09T02:40:32.740Z,17.30
2018-07-09T02:43:03.426Z,17.30
2018-07-09T02:45:34.236Z,17.20
2018-07-09T02:48:05.054Z,17.20
2018-07-09T02:50:35.797Z,17.10
2018-07-09T02:53:06.473Z,17.00
2018-07-09T02:55:37.041Z,17.10
2018-07-09T02:58:07.581Z,17.00
2018-07-09T03:00:38.151Z,17.00
2018-07-09T03:03:08.766Z,17.00
2018-07-09T03:05:39.266Z,17.00
2018-07-09T03:08:09.995Z,16.80
2018-07-09T03:10:40.741Z,16.80
2018-07-09T03:13:11.450Z,16.70
2018-07-09T03:15:42.131Z,16.70
2018-07-09T03:18:12.826Z,16.60
2018-07-09T03:20:43.572Z,16.60
2018-07-09T03:23:14.171Z,16.50
2018-07-09T03:25:44.745Z,16.50
2018-07-09T03:28:15.370Z,16.50
2018-07-09T03:30:46.059Z,16.50
2018-07-09T03:33:16.513Z,16.50
2018-07-09T03:35:47.128Z,16.50
2018-07-09T03:38:17.674Z,16.60
2018-07-09T03:48:18.885Z,16.50
2018-07-09T03:50:49.390Z,16.50
2018-07-09T03:55:50.153Z,16.50
2018-07-09T03:58:20.736Z,16.50
2018-07-09T04:00:51.492Z,16.50
2018-07-09T04:03:22.338Z,16.60
2018-07-09T04:05:52.974Z,16.60
2018-07-09T04:08:23.802Z,16.60
2018-07-09T04:10:54.476Z,16.60
2018-07-09T04:13:25.949Z,16.60
2018-07-09T04:15:56.528Z,16.80
2018-07-09T04:21:00.531Z,17.00
2018-07-09T04:23:31.042Z,17.10
2018-07-09T04:26:01.613Z,17.20
2018-07-09T04:31:02.393Z,17.40
2018-07-09T04:33:32.942Z,17.50
2018-07-09T04:36:03.651Z,17.60
2018-07-09T04:38:34.294Z,17.70
2018-07-09T04:41:04.916Z,17.80
2018-07-09T04:43:35.441Z,17.80
2018-07-09T04:46:06.393Z,17.80
2018-07-09T04:48:37.140Z,17.90
2018-07-09T04:51:08.056Z,17.90
2018-07-09T04:53:38.607Z,18.00
2018-07-09T04:56:09.287Z,18.00
2018-07-09T04:58:39.965Z,18.00
2018-07-09T05:01:10.580Z,18.10
2018-07-09T05:03:42.171Z,18.10
2018-07-09T05:06:13.669Z,18.20
2018-07-09T05:08:44.307Z,18.30
2018-07-09T05:11:14.803Z,18.30
2018-07-09T05:13:45.347Z,18.50
2018-07-09T05:16:16.501Z,18.60
2018-07-09T05:18:47.313Z,18.60
2018-07-09T05:21:17.804Z,18.80
2018-07-09T05:23:48.445Z,19.00
2018-07-09T05:26:19.178Z,19.40
2018-07-09T05:28:49.735Z,19.60
2018-07-09T05:31:20.521Z,19.70
2018-07-09T05:33:51.137Z,19.70
2018-07-09T05:36:21.808Z,19.90
2018-07-09T05:38:52.518Z,20.30
2018-07-09T05:41:23.239Z,21.90
2018-07-09T05:46:27.016Z,25.80
2018-07-09T05:49:00.619Z,27.40
2018-07-09T05:51:31.169Z,28.60
2018-07-09T05:54:01.838Z,29.60
2018-07-09T05:56:32.456Z,30.50
2018-07-09T05:59:03.213Z,31.10
2018-07-09T06:01:33.660Z,31.80
2018-07-09T06:04:04.261Z,32.60
2018-07-09T06:06:34.802Z,33.30
2018-07-09T06:09:07.112Z,33.80
2018-07-09T06:11:38.517Z,34.20
2018-07-09T06:14:09.148Z,34.20
2018-07-09T06:16:39.632Z,33.90
2018-07-09T06:19:10.356Z,34.70
2018-07-09T06:21:40.879Z,35.40
2018-07-09T06:24:11.581Z,36.30
2018-07-09T06:26:45.249Z,37.00
2018-07-09T06:29:15.761Z,37.40
2018-07-09T06:31:46.313Z,37.60
2018-07-09T06:34:16.791Z,38.00
2018-07-09T06:36:47.283Z,37.70
2018-07-09T06:39:17.890Z,38.10
2018-07-09T06:41:48.626Z,38.20
2018-07-09T06:44:19.296Z,38.10
2018-07-09T06:46:49.925Z,38.60
2018-07-09T06:51:50.632Z,38.70
2018-07-09T06:54:21.081Z,39.50
2018-07-09T06:59:21.831Z,39.40
2018-07-09T07:01:52.455Z,39.10
2018-07-09T07:06:53.817Z,40.10
2018-07-09T07:09:24.263Z,40.10
2018-07-09T07:11:55.045Z,40.30
2018-07-09T07:14:25.645Z,39.70
2018-07-09T07:16:56.251Z,39.40
2018-07-09T07:19:27.610Z,39.20
2018-07-09T07:24:28.363Z,39.10
2018-07-09T07:26:59.188Z,38.70
2018-07-09T07:29:30.084Z,38.70
2018-07-09T07:32:00.777Z,38.70
2018-07-09T07:34:31.366Z,39.30
2018-07-09T07:37:01.947Z,39.30
2018-07-09T07:39:32.460Z,39.90
2018-07-09T07:42:03.322Z,40.10
2018-07-09T07:44:33.914Z,40.30
2018-07-09T07:47:04.547Z,40.10
2018-07-09T07:52:05.223Z,38.80
2018-07-09T07:54:35.718Z,37.70
2018-07-09T07:57:06.631Z,35.80
2018-07-09T07:59:37.344Z,35.30
2018-07-09T08:02:08.032Z,34.70
2018-07-09T08:04:38.552Z,35.70
2018-07-09T08:07:09.059Z,36.60
2018-07-09T08:09:39.670Z,37.00
2018-07-09T08:13:00.561Z,37.40
2018-07-09T08:14:41.310Z,37.80
2018-07-09T08:17:11.926Z,37.50
2018-07-09T08:19:42.449Z,37.80
2018-07-09T08:22:13.110Z,38.40
2018-07-09T08:24:43.783Z,39.10
2018-07-09T08:27:14.386Z,38.80
2018-07-09T08:29:44.939Z,38.70
2018-07-09T08:32:15.440Z,38.10
2018-07-09T08:34:46.132Z,38.10
2018-07-09T08:37:16.927Z,38.50
2018-07-09T08:39:47.548Z,39.00
2018-07-09T08:42:18.168Z,38.60
2018-07-09T08:44:48.898Z,39.10
2018-07-09T08:47:19.644Z,38.70
2018-07-09T08:49:50.537Z,39.30
2018-07-09T08:52:21.345Z,39.00
2018-07-09T08:54:52.579Z,37.50
2018-07-09T08:57:23.274Z,38.10
2018-07-09T08:59:53.956Z,38.10
2018-07-09T09:02:24.653Z,38.80
2018-07-09T09:04:55.835Z,39.10
2018-07-09T09:07:26.452Z,39.10
2018-07-09T09:09:57.189Z,38.60
2018-07-09T09:12:27.775Z,39.10
2018-07-09T09:14:58.412Z,39.40
2018-07-09T09:17:29.260Z,40.30
2018-07-09T09:19:59.956Z,40.80
2018-07-09T09:22:30.937Z,41.20
2018-07-09T09:25:01.633Z,40.50
2018-07-09T09:27:32.109Z,41.10
2018-07-09T09:30:02.776Z,40.50
2018-07-09T09:32:33.536Z,39.80
2018-07-09T09:35:04.403Z,38.70
2018-07-09T09:37:35.178Z,39.40
2018-07-09T09:40:05.813Z,39.30
2018-07-09T09:42:36.583Z,39.00
2018-07-09T09:45:07.277Z,38.40
2018-07-09T09:47:37.943Z,37.60
2018-07-09T09:50:08.460Z,36.70
2018-07-09T09:52:39.125Z,37.20
2018-07-09T09:55:09.919Z,37.80
2018-07-09T09:57:40.986Z,37.90
2018-07-09T10:00:11.528Z,37.90
2018-07-09T10:02:42.156Z,37.80
2018-07-09T10:05:12.763Z,37.10
2018-07-09T10:07:43.217Z,37.80
2018-07-09T10:12:43.990Z,39.10
2018-07-09T10:15:14.511Z,37.20
2018-07-09T10:17:45.436Z,37.30
2018-07-09T10:20:16.189Z,37.40
2018-07-09T10:22:46.797Z,36.10
2018-07-09T10:25:17.267Z,35.90
2018-07-09T10:27:48.582Z,35.50
2018-07-09T10:30:18.749Z,36.00
2018-07-09T10:32:49.540Z,35.90
2018-07-09T10:35:20.261Z,36.60
2018-07-09T10:37:51.179Z,37.00
2018-07-09T10:40:22.293Z,36.60
2018-07-09T10:42:52.886Z,35.20
2018-07-09T10:45:23.423Z,35.10
2018-07-09T10:47:54.153Z,35.30
2018-07-09T10:50:24.915Z,35.90
2018-07-09T10:52:55.777Z,36.00
2018-07-09T10:55:26.328Z,36.10
2018-07-09T10:57:56.870Z,35.70
2018-07-09T11:00:27.604Z,35.70
2018-07-09T11:02:58.115Z,35.40
2018-07-09T11:05:28.766Z,35.00
2018-07-09T11:07:59.419Z,34.00
2018-07-09T11:10:30.192Z,34.30
2018-07-09T11:13:01.332Z,33.90
2018-07-09T11:15:32.026Z,33.70
2018-07-09T11:18:02.723Z,33.30
2018-07-09T11:20:33.550Z,33.60
2018-07-09T11:23:04.208Z,32.80
2018-07-09T11:25:34.973Z,32.00
2018-07-09T11:28:05.482Z,31.30
2018-07-09T11:30:36.239Z,31.10
2018-07-09T11:33:07.097Z,30.90
2018-07-09T11:35:37.988Z,30.50
2018-07-09T11:38:09.106Z,30.50
2018-07-09T11:40:40.229Z,30.30
2018-07-09T11:43:11.003Z,30.20
2018-07-09T11:45:41.641Z,29.70
2018-07-09T11:48:13.132Z,29.60
2018-07-09T11:50:44.111Z,29.40
2018-07-09T11:53:14.766Z,29.50
2018-07-09T11:55:45.282Z,29.10
2018-07-09T11:58:15.799Z,29.50
2018-07-09T12:00:46.336Z,29.50
2018-07-09T12:03:17.012Z,29.60
2018-07-09T12:05:47.669Z,29.60
2018-07-09T12:08:18.255Z,29.30
2018-07-09T12:10:49.214Z,29.50
2018-07-09T12:13:19.910Z,30.00
2018-07-09T12:15:50.490Z,30.20
2018-07-09T12:18:21.111Z,30.40
2018-07-09T12:20:51.533Z,30.00
2018-07-09T12:23:22.135Z,30.10
2018-07-09T12:25:52.853Z,30.10
2018-07-09T12:28:23.347Z,29.80
2018-07-09T12:30:54.046Z,29.70
2018-07-09T12:33:24.742Z,29.80
2018-07-09T12:35:55.360Z,30.00
2018-07-09T12:38:25.937Z,30.30
2018-07-09T12:40:56.461Z,30.60
2018-07-09T12:43:27.273Z,30.50
2018-07-09T12:45:57.771Z,29.90
2018-07-09T12:48:28.432Z,29.80
2018-07-09T12:50:58.928Z,29.70
2018-07-09T12:53:30.129Z,29.70
2018-07-09T12:56:00.623Z,29.70
2018-07-09T12:58:31.310Z,29.40
2018-07-09T13:01:01.913Z,29.40
2018-07-09T13:06:02.843Z,29.70
2018-07-09T13:08:33.601Z,29.90
2018-07-09T13:11:04.365Z,29.90
2018-07-09T13:13:35.005Z,29.70
2018-07-09T13:16:05.694Z,29.60
2018-07-09T13:18:36.510Z,29.70
2018-07-09T13:21:07.713Z,29.60
2018-07-09T13:23:38.358Z,29.10
2018-07-09T13:26:08.925Z,29.00
2018-07-09T13:28:39.436Z,28.80
2018-07-09T13:31:10.313Z,29.00
2018-07-09T13:33:40.974Z,29.50
2018-07-09T13:36:11.534Z,29.60
2018-07-09T13:38:42.240Z,29.50
2018-07-09T13:41:12.862Z,29.40
2018-07-09T13:43:43.509Z,29.40
2018-07-09T13:46:14.117Z,29.50
2018-07-09T13:48:44.929Z,29.30
2018-07-09T13:51:15.566Z,29.40
2018-07-09T13:53:46.321Z,29.50
2018-07-09T13:56:17.458Z,29.60
2018-07-09T13:58:48.284Z,29.40
2018-07-09T14:01:19.296Z,29.30
2018-07-09T14:03:49.884Z,29.30
2018-07-09T14:06:20.401Z,29.20
2018-07-09T14:08:51.190Z,29.20
2018-07-09T14:11:21.655Z,29.30
2018-07-09T14:13:53.231Z,29.40
2018-07-09T14:16:23.883Z,29.70
2018-07-09T14:18:54.465Z,29.40
2018-07-09T14:21:25.076Z,29.50
2018-07-09T14:23:55.916Z,29.30
2018-07-09T14:26:26.454Z,29.20
2018-07-09T14:31:27.305Z,29.00
2018-07-09T14:33:57.929Z,28.90
2018-07-09T14:36:28.500Z,28.90
2018-07-09T14:38:59.216Z,28.80
2018-07-09T14:41:29.839Z,28.30
2018-07-09T14:44:00.412Z,28.40
2018-07-09T14:46:31.133Z,28.10
2018-07-09T14:49:03.141Z,28.00
2018-07-09T14:51:33.853Z,27.90
2018-07-09T14:54:04.488Z,28.00
2018-07-09T14:56:35.098Z,27.90
2018-07-09T14:59:05.881Z,28.10
2018-07-09T15:01:37.396Z,28.30
2018-07-09T15:04:08.133Z,28.40
2018-07-09T15:06:38.698Z,28.50
2018-07-09T15:09:09.410Z,28.60
2018-07-09T15:11:40.053Z,28.70
2018-07-09T15:14:11.684Z,28.50
2018-07-09T15:16:43.109Z,28.30
2018-07-09T15:19:13.599Z,28.30
2018-07-09T15:21:44.430Z,28.40
2018-07-09T15:24:15.574Z,28.40
2018-07-09T15:26:46.193Z,28.50
2018-07-09T15:29:16.807Z,28.90
2018-07-09T15:32:04.266Z,28.80
2018-07-09T15:34:35.657Z,28.70
2018-07-09T15:37:06.360Z,28.50
2018-07-09T15:39:37.407Z,28.50
2018-07-09T15:42:08.877Z,28.30
2018-07-09T15:44:39.593Z,28.20
2018-07-09T15:49:40.967Z,28.20
2018-07-09T15:52:11.803Z,28.20
2018-07-09T15:54:42.461Z,28.40
2018-07-09T15:57:14.018Z,28.70
2018-07-09T15:59:44.727Z,28.90
2018-07-09T16:02:15.390Z,28.70
2018-07-09T16:04:47.026Z,28.40
2018-07-09T16:07:18.370Z,28.50
2018-07-09T16:09:48.885Z,28.40
2018-07-09T16:12:19.725Z,28.30
2018-07-09T16:17:21.328Z,27.90
2018-07-09T16:19:53.354Z,27.80
2018-07-09T16:22:23.809Z,27.60
2018-07-09T16:24:54.453Z,27.60
2018-07-09T16:27:25.168Z,27.80
2018-07-09T16:29:55.875Z,27.80
2018-07-09T16:34:56.874Z,27.70
2018-07-09T16:37:27.467Z,27.60
2018-07-09T16:39:58.079Z,27.50
2018-07-09T16:42:29.297Z,27.50
2018-07-09T16:44:59.897Z,27.50
2018-07-09T16:47:30.637Z,27.40
2018-07-09T16:50:01.419Z,27.40
2018-07-09T16:52:32.024Z,27.40
2018-07-09T16:55:02.800Z,27.50
2018-07-09T16:57:33.437Z,27.50
2018-07-09T17:02:34.340Z,27.20
2018-07-09T17:05:05.025Z,27.00
2018-07-09T17:07:35.582Z,26.90
2018-07-09T17:10:06.220Z,26.80
2018-07-09T17:12:37.629Z,26.90
2018-07-09T17:15:08.434Z,27.00
2018-07-09T17:17:38.968Z,26.90
2018-07-09T17:20:09.561Z,27.00
2018-07-09T17:22:40.330Z,27.10
2018-07-09T17:25:10.915Z,27.10
2018-07-09T17:27:42.154Z,27.00
2018-07-09T17:32:42.975Z,27.10
2018-07-09T17:35:13.945Z,26.90
2018-07-09T17:37:45.680Z,26.60
2018-07-09T17:40:16.191Z,26.40
2018-07-09T17:42:46.669Z,26.30
2018-07-09T17:45:17.322Z,26.20
2018-07-09T17:47:48.134Z,26.20
2018-07-09T17:50:18.997Z,26.20
2018-07-09T17:52:49.502Z,26.30
2018-07-09T17:55:20.036Z,26.00
2018-07-09T17:57:50.575Z,25.90
2018-07-09T18:00:21.100Z,25.90
2018-07-09T18:02:51.718Z,25.70
2018-07-09T18:05:22.462Z,25.60
2018-07-09T18:07:53.183Z,25.50
2018-07-09T18:10:24.829Z,25.30
2018-07-09T18:12:55.436Z,25.10
2018-07-09T18:15:25.916Z,25.10
2018-07-09T18:17:56.672Z,25.00
2018-07-09T18:20:27.116Z,25.00
2018-07-09T18:22:57.979Z,24.80
2018-07-09T18:25:28.569Z,24.90
2018-07-09T18:30:30.359Z,24.80
2018-07-09T18:33:01.076Z,24.70
2018-07-09T18:35:32.303Z,24.60
2018-07-09T18:38:03.600Z,24.60
2018-07-09T18:40:34.221Z,24.40
2018-07-09T18:43:04.984Z,24.40
2018-07-09T18:45:35.634Z,24.30
2018-07-09T18:48:06.671Z,24.20
2018-07-09T18:50:37.314Z,24.10
2018-07-09T18:53:07.871Z,24.10
2018-07-09T18:55:38.377Z,23.90
2018-07-09T18:58:09.418Z,23.90
2018-07-09T19:03:10.429Z,23.60
2018-07-09T19:07:05.892Z,23.50
2018-07-09T19:12:09.363Z,23.50
2018-07-09T19:14:46.193Z,23.40
2018-07-09T19:18:10.892Z,23.40
2018-07-09T19:21:29.794Z,23.30
2018-07-09T19:24:00.020Z,23.20
2018-07-09T19:26:28.753Z,23.20
2018-07-09T19:28:57.524Z,23.00
2018-07-09T19:31:26.439Z,22.90
2018-07-09T19:33:55.227Z,22.80
2018-07-09T19:36:24.017Z,22.90
2018-07-09T19:41:21.664Z,22.90
2018-07-09T19:43:50.480Z,22.90
2018-07-09T19:46:19.266Z,22.80
2018-07-09T19:48:48.012Z,22.70
2018-07-09T19:51:16.768Z,22.70
2018-07-09T19:53:45.516Z,22.70
2018-07-09T19:56:14.512Z,22.60
2018-07-09T19:58:43.439Z,22.60
2018-07-09T20:01:12.302Z,22.50
2018-07-09T20:03:41.040Z,22.50
2018-07-09T20:06:09.798Z,22.40
2018-07-09T20:08:43.840Z,22.40
2018-07-09T20:11:17.699Z,22.40
2018-07-09T20:14:01.652Z,22.40
2018-07-09T20:16:35.512Z,22.40
2018-07-09T20:19:04.272Z,22.30
2018-07-09T20:21:33.135Z,22.20
2018-07-09T20:24:01.920Z,22.10
2018-07-09T20:26:30.713Z,22.10
2018-07-09T20:28:59.482Z,22.00
2018-07-09T20:31:28.241Z,22.00
2018-07-09T20:33:57.045Z,21.90
2018-07-09T20:36:25.782Z,21.90
2018-07-09T20:38:54.549Z,21.90
2018-07-09T20:41:23.293Z,21.90
2018-07-09T20:43:52.264Z,21.80
2018-07-09T20:46:21.272Z,21.80
2018-07-09T20:48:50.034Z,21.80
2018-07-09T20:51:18.804Z,21.80
2018-07-09T20:53:47.577Z,21.80
2018-07-09T20:56:16.369Z,21.80
2018-07-09T20:58:45.129Z,21.80
2018-07-09T21:01:13.896Z,21.70
2018-07-09T21:03:42.636Z,21.60
2018-07-09T21:06:11.400Z,21.70
2018-07-09T21:08:40.152Z,21.70
2018-07-09T21:11:08.899Z,21.60
2018-07-09T21:13:37.662Z,21.60
2018-07-09T21:18:35.461Z,21.50
2018-07-09T21:21:04.231Z,21.50
2018-07-09T21:23:33.099Z,21.50
2018-07-09T21:26:01.859Z,21.60
2018-07-09T21:28:30.647Z,21.60
2018-07-09T21:30:59.363Z,21.50
2018-07-09T21:33:28.137Z,21.50
2018-07-09T21:35:56.906Z,21.50
2018-07-09T21:38:25.661Z,21.50
2018-07-09T21:40:54.431Z,21.40
2018-07-09T21:43:23.522Z,21.40
2018-07-09T21:45:58.665Z,21.40
2018-07-09T21:48:29.778Z,21.40
2018-07-09T21:50:56.525Z,21.30
2018-07-09T21:53:26.205Z,21.30
2018-07-09T21:55:55.401Z,21.30
2018-07-09T21:58:24.568Z,21.30
2018-07-09T22:00:53.302Z,21.20
2018-07-09T22:03:22.031Z,21.10
2018-07-09T22:05:50.823Z,21.10
2018-07-09T22:08:19.566Z,21.00
2018-07-09T22:10:48.310Z,21.00
2018-07-09T22:15:45.950Z,21.00
2018-07-09T22:18:14.724Z,21.10
2018-07-09T22:20:43.469Z,21.00
2018-07-09T22:23:12.264Z,21.00
2018-07-09T22:25:40.998Z,21.00
2018-07-09T22:28:09.767Z,21.10
2018-07-09T22:30:40.390Z,21.10
2018-07-09T22:33:11.194Z,21.10
2018-07-09T22:35:41.810Z,21.10
2018-07-09T22:38:12.480Z,21.10
2018-07-09T22:40:43.006Z,21.10
2018-07-09T22:43:30.537Z,21.10
2018-07-09T22:46:01.217Z,21.00
2018-07-09T22:48:32.801Z,21.10
2018-07-09T22:51:03.570Z,21.00
2018-07-09T22:53:35.049Z,21.00
2018-07-09T22:56:13.450Z,20.90
2018-07-09T22:58:44.226Z,21.00
2018-07-09T23:01:15.376Z,21.00
2018-07-09T23:03:46.007Z,21.00
2018-07-09T23:06:16.478Z,21.00
2018-07-09T23:08:47.093Z,21.00
2018-07-09T23:11:34.673Z,21.10
2018-07-09T23:16:50.521Z,21.10
2018-07-09T23:19:41.862Z,21.00
2018-07-09T23:22:17.680Z,20.90
2018-07-09T23:24:46.452Z,20.90
2018-07-09T23:27:15.213Z,20.80
2018-07-09T23:29:43.952Z,20.80
2018-07-09T23:32:12.734Z,20.90
2018-07-09T23:34:41.479Z,20.80
2018-07-09T23:37:10.256Z,20.80
2018-07-09T23:39:38.995Z,20.80
2018-07-09T23:42:07.764Z,20.80
2018-07-09T23:44:36.572Z,20.80
2018-07-09T23:47:05.338Z,20.70
2018-07-09T23:49:34.284Z,20.70
2018-07-09T23:52:03.042Z,20.70
2018-07-09T23:54:31.778Z,20.50
2018-07-09T23:58:16.956Z,20.50
